createdAt,value
2022-11-16T00:02:57.512Z,100.00
2022-11-16T00:06:02.218Z,100.00
2022-11-16T00:09:23.116Z,100.00
2022-11-16T00:12:25.344Z,100.00
2022-11-16T00:15:27.983Z,100.00
2022-11-16T00:18:31.107Z,100.00
2022-11-16T00:21:34.039Z,100.00
2022-11-16T00:24:36.294Z,100.00
2022-11-16T00:27:38.499Z,100.00
2022-11-16T00:30:40.972Z,100.00
2022-11-16T00:33:43.186Z,100.00
2022-11-16T00:36:45.695Z,100.00
2022-11-16T00:39:47.921Z,100.00
2022-11-16T00:42:50.213Z,100.00
2022-11-16T00:45:52.619Z,100.00
2022-11-16T00:48:54.869Z,100.00
2022-11-16T00:51:57.097Z,100.00
2022-11-16T00:54:59.312Z,100.00
2022-11-16T00:58:01.552Z,100.00
2022-11-16T01:01:08.524Z,100.00
2022-11-16T01:04:10.978Z,100.00
2022-11-16T01:07:13.166Z,100.00
2022-11-16T01:10:21.424Z,100.00
2022-11-16T01:13:23.569Z,100.00
2022-11-16T01:16:25.889Z,100.00
2022-11-16T01:19:28.354Z,100.00
2022-11-16T01:22:30.693Z,100.00
2022-11-16T01:25:33.167Z,100.00
2022-11-16T01:28:35.858Z,100.00
2022-11-16T01:34:57.719Z,100.00
2022-11-16T01:38:00.043Z,100.00
2022-11-16T01:41:02.284Z,100.00
2022-11-16T01:44:33.361Z,100.00
2022-11-16T01:47:35.621Z,100.00
2022-11-16T01:50:39.189Z,100.00
2022-11-16T01:53:41.822Z,100.00
2022-11-16T01:56:47.811Z,100.00
2022-11-16T01:59:54.134Z,100.00
2022-11-16T02:02:56.607Z,100.00
2022-11-16T02:06:26.939Z,100.00
2022-11-16T02:09:59.612Z,100.00
2022-11-16T02:13:04.860Z,100.00
2022-11-16T02:16:25.737Z,100.00
2022-11-16T02:19:55.625Z,100.00
2022-11-16T02:23:34.288Z,100.00
2022-11-16T02:26:39.208Z,100.00
2022-11-16T02:29:52.498Z,100.00
2022-11-16T02:33:18.147Z,100.00
2022-11-16T02:36:24.262Z,100.00
2022-11-16T02:39:30.183Z,100.00
2022-11-16T02:42:41.618Z,100.00
2022-11-16T02:45:48.356Z,100.00
2022-11-16T02:48:55.261Z,100.00
2022-11-16T02:51:59.171Z,100.00
2022-11-16T02:55:01.510Z,100.00
2022-11-16T02:58:11.577Z,100.00
2022-11-16T03:01:23.977Z,100.00
2022-11-16T03:04:38.060Z,100.00
2022-11-16T03:07:48.215Z,100.00
2022-11-16T03:11:14.199Z,100.00
2022-11-16T03:14:20.796Z,100.00
2022-11-16T03:17:30.316Z,100.00
2022-11-16T03:20:35.709Z,100.00
2022-11-16T03:23:38.209Z,100.00
2022-11-16T03:27:07.364Z,100.00
2022-11-16T03:30:18.986Z,100.00
2022-11-16T03:33:29.428Z,100.00
2022-11-16T03:36:35.222Z,100.00
2022-11-16T03:39:39.867Z,100.00
2022-11-16T03:42:43.148Z,100.00
2022-11-16T03:45:47.005Z,100.00
2022-11-16T03:48:49.221Z,100.00
2022-11-16T03:51:52.144Z,100.00
2022-11-16T03:54:54.338Z,100.00
2022-11-16T03:57:56.656Z,100.00
2022-11-16T04:00:59.401Z,100.00
2022-11-16T04:04:01.706Z,100.00
2022-11-16T04:07:22.496Z,100.00
2022-11-16T04:10:43.833Z,100.00
2022-11-16T04:14:09.074Z,100.00
2022-11-16T04:17:35.146Z,100.00
2022-11-16T04:20:56.507Z,100.00
2022-11-16T04:24:13.868Z,100.00
2022-11-16T04:27:35.369Z,100.00
2022-11-16T04:30:56.167Z,100.00
2022-11-16T04:34:16.864Z,100.00
2022-11-16T04:37:38.219Z,100.00
2022-11-16T04:40:40.623Z,100.00
2022-11-16T04:43:42.822Z,100.00
2022-11-16T04:47:04.133Z,100.00
2022-11-16T04:50:06.731Z,100.00
2022-11-16T04:53:09.425Z,100.00
2022-11-16T04:56:12.668Z,100.00
2022-11-16T04:59:15.165Z,100.00
2022-11-16T05:02:17.380Z,100.00
2022-11-16T05:05:20.187Z,100.00
2022-11-16T05:08:22.395Z,100.00
2022-11-16T05:11:24.676Z,100.00
2022-11-16T05:14:27.083Z,100.00
2022-11-16T05:17:29.878Z,100.00
2022-11-16T05:20:50.924Z,100.00
2022-11-16T05:24:11.727Z,100.00
2022-11-16T05:27:17.255Z,100.00
2022-11-16T05:30:20.049Z,100.00
2022-11-16T05:33:22.298Z,100.00
2022-11-16T05:36:24.655Z,100.00
2022-11-16T05:39:26.993Z,100.00
2022-11-16T05:42:29.272Z,100.00
2022-11-16T05:45:31.579Z,100.00
2022-11-16T05:48:33.988Z,100.00
2022-11-16T05:51:38.347Z,100.00
2022-11-16T05:54:40.603Z,100.00
2022-11-16T05:57:43.140Z,100.00
2022-11-16T06:00:48.547Z,100.00
2022-11-16T06:03:51.361Z,100.00
2022-11-16T06:06:53.812Z,100.00
2022-11-16T06:09:56.129Z,100.00
2022-11-16T06:12:58.368Z,100.00
2022-11-16T06:16:01.362Z,100.00
2022-11-16T06:19:03.591Z,100.00
2022-11-16T06:22:05.867Z,100.00
2022-11-16T06:25:08.675Z,100.00
2022-11-16T06:28:11.184Z,100.00
2022-11-16T06:31:13.723Z,100.00
2022-11-16T06:34:16.275Z,100.00
2022-11-16T06:37:19.125Z,100.00
2022-11-16T06:40:21.622Z,100.00
2022-11-16T06:43:27.336Z,100.00
2022-11-16T06:46:29.485Z,100.00
2022-11-16T06:49:32.402Z,100.00
2022-11-16T06:52:34.720Z,100.00
2022-11-16T06:55:37.020Z,100.00
2022-11-16T06:58:41.692Z,100.00
2022-11-16T07:01:45.270Z,100.00
2022-11-16T07:04:47.591Z,100.00
2022-11-16T07:07:54.602Z,100.00
2022-11-16T07:11:01.520Z,100.00
2022-11-16T07:14:06.196Z,100.00
2022-11-16T07:17:09.813Z,100.00
2022-11-16T07:20:12.313Z,100.00
2022-11-16T07:23:14.549Z,100.00
2022-11-16T07:26:16.827Z,100.00
2022-11-16T07:29:19.676Z,100.00
2022-11-16T07:32:22.394Z,100.00
2022-11-16T07:35:25.175Z,100.00
2022-11-16T07:38:27.361Z,100.00
2022-11-16T07:41:29.607Z,100.00
2022-11-16T07:44:31.789Z,100.00
2022-11-16T07:47:38.139Z,100.00
2022-11-16T07:50:40.397Z,100.00
2022-11-16T07:53:43.911Z,100.00
2022-11-16T07:56:46.120Z,100.00
2022-11-16T07:59:48.363Z,99.77
2022-11-16T08:02:50.979Z,99.70
2022-11-16T08:06:08.624Z,99.48
2022-11-16T08:09:11.012Z,99.45
2022-11-16T08:12:13.672Z,99.39
2022-11-16T08:15:16.078Z,99.41
2022-11-16T08:18:19.693Z,99.50
2022-11-16T08:21:21.917Z,99.54
2022-11-16T08:24:24.192Z,99.43
2022-11-16T08:27:26.464Z,99.49
2022-11-16T08:30:28.724Z,99.29
2022-11-16T08:33:31.032Z,99.38
2022-11-16T08:36:33.311Z,99.55
2022-11-16T08:39:35.570Z,99.50
2022-11-16T08:42:43.254Z,99.28
2022-11-16T08:45:49.761Z,98.98
2022-11-16T08:48:56.729Z,99.12
2022-11-16T08:51:58.945Z,98.61
2022-11-16T08:55:01.169Z,98.56
2022-11-16T08:58:03.657Z,98.28
2022-11-16T09:01:14.677Z,98.24
2022-11-16T09:04:18.927Z,97.66
2022-11-16T09:07:21.988Z,97.54
2022-11-16T09:10:26.166Z,97.24
2022-11-16T09:13:28.732Z,97.26
2022-11-16T09:16:30.897Z,96.80
2022-11-16T09:19:35.134Z,96.44
2022-11-16T09:22:37.343Z,96.31
2022-11-16T09:25:39.595Z,96.12
2022-11-16T09:28:41.917Z,96.12
2022-11-16T09:31:44.212Z,96.30
2022-11-16T09:34:46.448Z,96.55
2022-11-16T09:37:48.679Z,96.52
2022-11-16T09:40:50.935Z,96.56
2022-11-16T09:44:10.882Z,96.59
2022-11-16T09:47:22.590Z,96.64
2022-11-16T09:50:33.937Z,97.45
2022-11-16T09:53:45.510Z,97.90
2022-11-16T09:56:51.794Z,98.50
2022-11-16T10:00:00.901Z,98.52
2022-11-16T10:03:06.910Z,99.06
2022-11-16T10:06:21.458Z,99.30
2022-11-16T10:09:24.458Z,99.84
2022-11-16T10:12:44.224Z,100.00
2022-11-16T10:16:00.573Z,100.00
2022-11-16T10:19:21.813Z,100.00
2022-11-16T10:22:59.062Z,100.00
2022-11-16T10:26:25.658Z,100.00
2022-11-16T10:30:05.306Z,100.00
2022-11-16T10:33:13.405Z,100.00
2022-11-16T10:36:16.788Z,100.00
2022-11-16T10:39:20.768Z,100.00
2022-11-16T10:42:31.422Z,100.00
2022-11-16T10:45:40.366Z,100.00
2022-11-16T10:49:11.725Z,100.00
2022-11-16T10:52:13.993Z,100.00
2022-11-16T10:55:16.808Z,100.00
2022-11-16T10:58:19.066Z,100.00
2022-11-16T11:01:29.076Z,100.00
2022-11-16T11:04:32.880Z,100.00
2022-11-16T11:07:40.287Z,100.00
2022-11-16T11:10:43.015Z,100.00
2022-11-16T11:13:45.265Z,100.00
2022-11-16T11:16:53.162Z,100.00
2022-11-16T11:20:15.508Z,100.00
2022-11-16T11:23:24.141Z,100.00
2022-11-16T11:26:37.122Z,100.00
2022-11-16T11:29:43.349Z,100.00
2022-11-16T11:32:46.789Z,100.00
2022-11-16T11:36:02.317Z,100.00
2022-11-16T11:39:13.835Z,100.00
2022-11-16T11:42:15.889Z,100.00
2022-11-16T11:45:20.054Z,100.00
2022-11-16T11:48:34.097Z,100.00
2022-11-16T11:51:42.418Z,100.00
2022-11-16T11:54:49.573Z,100.00
2022-11-16T11:57:53.976Z,100.00
2022-11-16T12:01:25.775Z,100.00
2022-11-16T12:04:43.649Z,100.00
2022-11-16T12:07:48.591Z,100.00
2022-11-16T12:11:29.504Z,100.00
2022-11-16T12:15:17.146Z,100.00
2022-11-16T12:18:54.904Z,100.00
2022-11-16T12:22:37.662Z,100.00
2022-11-16T12:26:00.007Z,100.00
2022-11-16T12:29:34.538Z,100.00
2022-11-16T12:33:04.659Z,100.00
2022-11-16T12:36:24.950Z,100.00
2022-11-16T12:39:56.065Z,100.00
2022-11-16T12:43:17.808Z,100.00
2022-11-16T12:46:35.093Z,100.00
2022-11-16T12:49:58.506Z,100.00
2022-11-16T12:53:35.293Z,100.00
2022-11-16T12:56:49.149Z,100.00
2022-11-16T13:00:12.263Z,100.00
2022-11-16T13:03:31.649Z,100.00
2022-11-16T13:06:44.151Z,100.00
2022-11-16T13:09:51.654Z,100.00
2022-11-16T13:13:29.666Z,100.00
2022-11-16T13:16:25.645Z,100.00
2022-11-16T13:19:28.408Z,100.00
2022-11-16T13:22:33.878Z,100.00
2022-11-16T13:25:40.870Z,100.00
2022-11-16T13:29:00.447Z,100.00
2022-11-16T13:32:14.517Z,100.00
2022-11-16T13:35:18.722Z,100.00
2022-11-16T13:38:51.111Z,100.00
2022-11-16T13:42:12.041Z,100.00
2022-11-16T13:45:20.945Z,100.00
2022-11-16T13:48:33.852Z,100.00
2022-11-16T13:51:36.380Z,100.00
2022-11-16T13:54:47.078Z,100.00
2022-11-16T13:57:53.105Z,100.00
2022-11-16T14:01:09.063Z,100.00
2022-11-16T14:07:50.826Z,100.00
2022-11-16T14:10:53.167Z,100.00
2022-11-16T14:13:55.561Z,100.00
2022-11-16T14:16:57.798Z,100.00
2022-11-16T14:20:00.351Z,100.00
2022-11-16T14:23:39.835Z,100.00
2022-11-16T14:27:00.237Z,100.00
2022-11-16T14:30:33.115Z,100.00
2022-11-16T14:33:37.128Z,100.00
2022-11-16T14:36:43.339Z,100.00
2022-11-16T14:39:46.048Z,100.00
2022-11-16T14:46:35.906Z,100.00
2022-11-16T14:49:47.269Z,100.00
2022-11-16T14:52:52.781Z,100.00
2022-11-16T14:56:08.079Z,100.00
2022-11-16T14:59:17.023Z,100.00
2022-11-16T15:02:27.600Z,100.00
2022-11-16T15:05:34.633Z,100.00
2022-11-16T15:08:51.942Z,100.00
2022-11-16T15:12:14.028Z,100.00
2022-11-16T15:15:19.534Z,100.00
2022-11-16T15:18:23.418Z,100.00
2022-11-16T15:21:25.873Z,100.00
2022-11-16T15:24:35.376Z,100.00
2022-11-16T15:27:40.917Z,100.00
2022-11-16T15:30:46.936Z,100.00
2022-11-16T15:33:50.551Z,100.00
2022-11-16T15:36:52.856Z,100.00
2022-11-16T15:39:56.591Z,100.00
2022-11-16T15:43:00.875Z,100.00
2022-11-16T15:46:04.969Z,100.00
2022-11-16T15:49:37.207Z,100.00
2022-11-16T15:52:54.833Z,100.00
2022-11-16T15:55:57.204Z,100.00
2022-11-16T15:59:09.583Z,100.00
2022-11-16T16:02:19.335Z,100.00
2022-11-16T16:05:37.155Z,100.00
2022-11-16T16:08:40.892Z,100.00
2022-11-16T16:11:43.360Z,100.00
2022-11-16T16:14:46.767Z,100.00
2022-11-16T16:17:49.800Z,100.00
2022-11-16T16:20:52.034Z,100.00
2022-11-16T16:23:56.241Z,100.00
2022-11-16T16:26:58.602Z,100.00
2022-11-16T16:30:05.582Z,100.00
2022-11-16T16:33:15.965Z,100.00
2022-11-16T16:36:18.189Z,100.00
2022-11-16T16:39:21.108Z,100.00
2022-11-16T16:42:23.460Z,100.00
2022-11-16T16:45:41.871Z,100.00
2022-11-16T16:48:44.897Z,100.00
2022-11-16T16:51:47.262Z,100.00
2022-11-16T16:54:49.892Z,100.00
2022-11-16T16:57:54.451Z,100.00
2022-11-16T17:01:01.166Z,100.00
2022-11-16T17:04:03.855Z,100.00
2022-11-16T17:07:08.939Z,100.00
2022-11-16T17:10:11.523Z,100.00
2022-11-16T17:13:14.156Z,100.00
2022-11-16T17:16:18.861Z,100.00
2022-11-16T17:19:21.708Z,100.00
2022-11-16T17:22:24.415Z,100.00
2022-11-16T17:25:27.294Z,100.00
2022-11-16T17:28:30.117Z,100.00
2022-11-16T17:31:32.570Z,100.00
2022-11-16T17:34:35.000Z,100.00
2022-11-16T17:37:37.758Z,100.00
2022-11-16T17:40:40.728Z,100.00
2022-11-16T17:43:44.694Z,100.00
2022-11-16T17:46:47.840Z,100.00
2022-11-16T17:49:50.418Z,100.00
2022-11-16T17:52:52.972Z,100.00
2022-11-16T17:55:58.820Z,100.00
2022-11-16T17:59:14.369Z,100.00
2022-11-16T18:02:16.959Z,100.00
2022-11-16T18:05:19.887Z,100.00
2022-11-16T18:08:22.620Z,100.00
2022-11-16T18:11:30.185Z,100.00
2022-11-16T18:14:32.787Z,100.00
2022-11-16T18:17:36.890Z,100.00
2022-11-16T18:20:39.822Z,100.00
2022-11-16T18:23:42.917Z,100.00
2022-11-16T18:26:45.564Z,100.00
2022-11-16T18:29:48.736Z,100.00
2022-11-16T18:32:51.700Z,100.00
2022-11-16T18:35:55.092Z,100.00
2022-11-16T18:38:57.835Z,100.00
2022-11-16T18:42:00.502Z,100.00
2022-11-16T18:45:05.617Z,100.00
2022-11-16T18:48:08.538Z,100.00
2022-11-16T18:51:11.888Z,100.00
2022-11-16T18:54:14.228Z,100.00
2022-11-16T19:00:58.517Z,100.00
2022-11-16T19:04:01.380Z,100.00
2022-11-16T19:07:04.237Z,100.00
2022-11-16T19:10:07.665Z,100.00
2022-11-16T19:13:10.300Z,100.00
2022-11-16T19:16:14.313Z,100.00
2022-11-16T19:19:17.058Z,100.00
2022-11-16T19:22:20.328Z,100.00
2022-11-16T19:25:25.895Z,100.00
2022-11-16T19:28:28.538Z,100.00
2022-11-16T19:31:33.212Z,100.00
2022-11-16T19:34:36.391Z,100.00
2022-11-16T19:37:39.341Z,100.00
2022-11-16T19:40:44.838Z,100.00
2022-11-16T19:43:50.751Z,100.00
2022-11-16T19:46:55.081Z,100.00
2022-11-16T19:49:57.823Z,100.00
2022-11-16T19:53:00.477Z,100.00
2022-11-16T19:56:03.744Z,100.00
2022-11-16T19:59:06.432Z,100.00
2022-11-16T20:02:10.836Z,100.00
2022-11-16T20:05:19.569Z,100.00
2022-11-16T20:08:22.592Z,100.00
2022-11-16T20:11:34.616Z,100.00
2022-11-16T20:14:37.377Z,100.00
2022-11-16T20:17:40.222Z,100.00
2022-11-16T20:20:42.781Z,100.00
2022-11-16T20:23:46.210Z,100.00
2022-11-16T20:26:49.969Z,100.00
2022-11-16T20:29:52.947Z,100.00
2022-11-16T20:32:55.771Z,100.00
2022-11-16T20:36:03.301Z,100.00
2022-11-16T20:39:06.153Z,100.00
2022-11-16T20:42:09.108Z,100.00
2022-11-16T20:45:12.813Z,100.00
2022-11-16T20:48:16.030Z,100.00
2022-11-16T20:51:20.077Z,100.00
2022-11-16T20:54:24.954Z,100.00
2022-11-16T20:57:27.395Z,100.00
2022-11-16T21:00:31.092Z,100.00
2022-11-16T21:03:34.385Z,100.00
2022-11-16T21:06:37.047Z,100.00
2022-11-16T21:09:59.312Z,100.00
2022-11-16T21:13:20.645Z,100.00
2022-11-16T21:16:23.310Z,100.00
2022-11-16T21:19:25.807Z,100.00
2022-11-16T21:22:32.116Z,100.00
2022-11-16T21:25:35.194Z,100.00
2022-11-16T21:28:39.070Z,100.00
2022-11-16T21:31:41.446Z,100.00
2022-11-16T21:34:43.673Z,100.00
2022-11-16T21:37:45.998Z,100.00
2022-11-16T21:40:48.564Z,100.00
2022-11-16T21:43:51.306Z,100.00
2022-11-16T21:46:54.246Z,100.00
2022-11-16T21:50:29.587Z,100.00
2022-11-16T21:53:18.727Z,100.00
2022-11-16T21:56:25.106Z,100.00
2022-11-16T21:59:27.294Z,100.00
2022-11-16T22:02:29.621Z,100.00
2022-11-16T22:05:50.319Z,100.00
2022-11-16T22:08:53.063Z,100.00
2022-11-16T22:11:55.324Z,100.00
2022-11-16T22:14:58.649Z,100.00
2022-11-16T22:18:01.982Z,100.00
2022-11-16T22:21:05.405Z,100.00
2022-11-16T22:24:07.963Z,100.00
2022-11-16T22:27:10.281Z,100.00
2022-11-16T22:30:12.752Z,100.00
2022-11-16T22:33:19.741Z,100.00
2022-11-16T22:36:22.353Z,100.00
2022-11-16T22:39:24.694Z,100.00
2022-11-16T22:42:27.034Z,100.00
2022-11-16T22:45:29.353Z,100.00
2022-11-16T22:48:39.842Z,100.00
2022-11-16T22:51:42.058Z,100.00
2022-11-16T22:54:44.361Z,100.00
2022-11-16T22:57:46.564Z,100.00
2022-11-16T23:00:48.808Z,100.00
2022-11-16T23:03:51.439Z,100.00
2022-11-16T23:06:53.686Z,100.00
2022-11-16T23:09:56.006Z,100.00
2022-11-16T23:13:16.794Z,100.00
2022-11-16T23:16:19.019Z,100.00
2022-11-16T23:19:40.876Z,100.00
2022-11-16T23:23:01.600Z,100.00
2022-11-16T23:26:28.471Z,100.00
2022-11-16T23:29:30.656Z,100.00
2022-11-16T23:32:32.889Z,100.00
2022-11-16T23:35:35.159Z,100.00
2022-11-16T23:38:37.342Z,100.00
2022-11-16T23:41:58.274Z,100.00
2022-11-16T23:45:00.598Z,100.00
2022-11-16T23:48:02.829Z,100.00
2022-11-16T23:51:05.109Z,100.00
2022-11-16T23:54:07.673Z,100.00
2022-11-16T23:57:10.085Z,100.00
